Portada
METAR-TAF:

METAR-TAF

Aeropuertos :

Caracas, Venezuela

Aeropuerto Internacional de Maiquetía Simón Bolívar

latitud: 10-36N, longitud: 066-59W, altitud: 43 m

Observación

El informe se hizo hace 1 hora y 0 minutos, a las 19:00 UTC
Viento 4 kt del este-noreste
Temperatura 29°C
Humedad 74%
Presión 1011 hPa
Visibilidad 10 km o más
Cielo nuboso a una altura de 1600 ft

METAR: SVMI 181900Z 07004KT 9999 BKN016 29/24 Q1011

Hora: 16:00 (20:00 UTC)

Pronóstico

El informe se hizo hace 4 horas y 0 minutos, a las 16:00 UTC
Pronóstico válido del 18 a las 18 UTC al 19 a las 18 UTC
Viento 10 kt del noreste
Visibilidad 10 km o más
Nubes dispersas a una altura de 1600 ft
Evolucionando progresivamente
del 18 a las 19 UTC al 18 a las 23 UTC

TAF: SVMI 181600Z 1818/1918 04010KT 9999 SCT016 TX33/19Z TN23/09Z BECMG 1819/1823 10008

Observaciones y pronósticos meteorológicos de más de 4000 aeropuertos (mensajes METAR y TAF).

Los puntos amarillos y rojos representan las estaciones disponibles.

Ponga el ratón en el punto deseado para ver el nombre de la estación.

Haga clic para ver las observaciones y los pronósticos meteorológicos.

Para cambiar el mapa : haga clic en los botones verdes con una cruz de color negro para hacer un zoom, en el botón verde con un guión para alejar o en las flechas verdes para mapas adyacentes.


METAR-TAF: